Time;durP1;ratioP1;P1;durP2;ratioP2;P2;SDS_P1;SDS_P2;PMS_P1;PMS_P2;Temp;Humidity;BMP_temperature;BMP_pressure;BME280_temperature;BME280_humidity;BME280_pressure;Samples;Min_cycle;Max_cycle;Signal;HPM_P1;HPM_P2
2022/03/16 00:02:19;;;;;;;75.22;44.03;;;;;;;;;;4824373;29;20035;-67
2022/03/16 00:04:46;;;;;;;80.60;44.50;;;;;;;;;;4823718;29;20054;-65
2022/03/16 00:07:12;;;;;;;83.03;43.72;;;;;;;;;;4823628;29;20050;-67
2022/03/16 00:09:38;;;;;;;86.85;45.08;;;;;;;;;;4806505;29;20166;-67
2022/03/16 00:12:04;;;;;;;82.13;47.15;;;;;;;;;;4823008;29;20062;-67
2022/03/16 00:14:30;;;;;;;81.20;46.70;;;;;;;;;;4822598;29;20142;-67
2022/03/16 00:16:56;;;;;;;86.78;45.88;;;;;;;;;;4823362;29;20058;-67
2022/03/16 00:19:22;;;;;;;82.05;44.67;;;;;;;;;;4822977;29;20054;-67
2022/03/16 00:21:48;;;;;;;80.40;44.83;;;;;;;;;;4822374;29;20509;-67
2022/03/16 00:24:14;;;;;;;86.78;46.20;;;;;;;;;;4822933;29;20091;-67
2022/03/16 00:26:40;;;;;;;79.05;46.42;;;;;;;;;;4821936;29;20500;-66
2022/03/16 00:29:06;;;;;;;83.72;45.03;;;;;;;;;;4836763;29;20444;-67
2022/03/16 00:31:34;;;;;;;81.63;44.85;;;;;;;;;;4822572;29;20130;-67
2022/03/16 00:34:00;;;;;;;84.97;45.08;;;;;;;;;;4822034;29;20073;-67
2022/03/16 00:36:27;;;;;;;79.35;43.33;;;;;;;;;;4822781;29;20050;-67
2022/03/16 00:38:53;;;;;;;88.85;45.97;;;;;;;;;;4806093;29;20050;-67
2022/03/16 00:41:19;;;;;;;76.13;44.55;;;;;;;;;;4822637;29;20499;-66
2022/03/16 00:43:45;;;;;;;86.65;43.50;;;;;;;;;;4822635;29;20053;-67
2022/03/16 00:46:11;;;;;;;;;;;;;;;;;;4822657;29;20057;-67
2022/03/16 00:48:37;;;;;;;73.50;43.25;;;;;;;;;;4820833;29;20068;-67
2022/03/16 00:51:03;;;;;;;76.80;44.85;;;;;;;;;;4835966;29;20050;-68
2022/03/16 00:53:34;;;;;;;86.88;45.15;;;;;;;;;;4822229;29;20046;-65
2022/03/16 00:56:01;;;;;;;79.38;44.95;;;;;;;;;;4823224;29;20166;-67
2022/03/16 00:58:27;;;;;;;;;;;;;;;;;;4819405;29;20187;-66
2022/03/16 01:00:53;;;;;;;85.70;45.50;;;;;;;;;;4786155;30;19957;-66
2022/03/16 01:03:19;;;;;;;77.78;44.88;;;;;;;;;;4785860;30;20114;-67
2022/03/16 01:05:46;;;;;;;80.10;44.25;;;;;;;;;;4785737;30;20099;-66
2022/03/16 01:08:12;;;;;;;78.60;43.70;;;;;;;;;;4785910;30;20126;-66
2022/03/16 01:10:39;;;;;;;84.15;46.38;;;;;;;;;;4785675;30;20446;-66
2022/03/16 01:13:05;;;;;;;85.32;44.78;;;;;;;;;;4785609;30;20630;-66
2022/03/16 01:15:31;;;;;;;78.20;44.55;;;;;;;;;;4785750;30;20141;-66
2022/03/16 01:17:58;;;;;;;77.65;44.65;;;;;;;;;;4785942;30;20056;-66
2022/03/16 01:20:24;;;;;;;85.40;43.60;;;;;;;;;;4784714;30;20054;-66
2022/03/16 01:22:51;;;;;;;85.70;45.63;;;;;;;;;;4785687;30;20062;-66
2022/03/16 01:25:17;;;;;;;80.82;43.88;;;;;;;;;;4785456;30;20411;-66
2022/03/16 01:27:46;;;;;;;76.57;42.72;;;;;;;;;;4785352;29;20047;-66
2022/03/16 01:30:15;;;;;;;84.90;43.80;;;;;;;;;;4785689;30;20047;-67
2022/03/16 01:32:42;;;;;;;81.60;44.67;;;;;;;;;;4785212;30;20051;-66
2022/03/16 01:35:09;;;;;;;80.15;43.05;;;;;;;;;;4785623;30;20055;-67
2022/03/16 01:37:35;;;;;;;78.43;43.40;;;;;;;;;;4785186;30;20051;-66
2022/03/16 01:40:01;;;;;;;80.47;43.72;;;;;;;;;;4785083;30;20053;-66
2022/03/16 01:42:27;;;;;;;79.28;44.42;;;;;;;;;;4785646;30;20138;-66
2022/03/16 01:44:56;;;;;;;78.85;44.72;;;;;;;;;;4768347;30;20135;-66
2022/03/16 01:47:24;;;;;;;73.25;42.03;;;;;;;;;;4785271;30;20055;-67
2022/03/16 01:49:50;;;;;;;81.03;44.30;;;;;;;;;;4785008;30;20070;-66
2022/03/16 01:52:18;;;;;;;89.22;44.55;;;;;;;;;;4785055;30;20168;-67
2022/03/16 01:54:44;;;;;;;88.43;47.15;;;;;;;;;;4785128;30;20127;-66
2022/03/16 01:57:11;;;;;;;82.05;45.40;;;;;;;;;;4793074;29;20062;-66
2022/03/16 01:59:38;;;;;;;78.82;44.05;;;;;;;;;;4835052;29;20054;-66
2022/03/16 02:02:07;;;;;;;81.38;45.05;;;;;;;;;;4821156;29;20054;-67
2022/03/16 02:04:33;;;;;;;84.82;44.65;;;;;;;;;;4789706;29;20051;-66
2022/03/16 02:07:00;;;;;;;89.22;46.53;;;;;;;;;;4821566;29;20046;-67
2022/03/16 02:09:26;;;;;;;87.60;47.40;;;;;;;;;;4821180;29;20054;-67
2022/03/16 02:11:52;;;;;;;82.78;44.10;;;;;;;;;;4821240;29;20178;-66
2022/03/16 02:14:18;;;;;;;86.65;44.92;;;;;;;;;;4821299;29;20060;-66
2022/03/16 02:16:45;;;;;;;84.78;45.92;;;;;;;;;;4821118;29;20090;-66
2022/03/16 02:19:11;;;;;;;87.22;45.42;;;;;;;;;;4821546;29;20050;-66
2022/03/16 02:21:38;;;;;;;90.45;46.92;;;;;;;;;;4821195;29;20145;-66
2022/03/16 02:24:07;;;;;;;86.65;45.97;;;;;;;;;;4821323;29;20070;-66
2022/03/16 02:26:34;;;;;;;83.57;45.97;;;;;;;;;;4821101;29;20448;-67
2022/03/16 02:29:00;;;;;;;85.10;46.80;;;;;;;;;;4834757;29;20507;-67
2022/03/16 02:31:26;;;;;;;84.95;45.08;;;;;;;;;;4821201;29;20117;-66
2022/03/16 02:33:53;;;;;;;;;;;;;;;;;;4821458;29;20139;-67
2022/03/16 02:36:19;;;;;;;86.65;48.65;;;;;;;;;;4820349;29;19940;-67
2022/03/16 02:38:45;;;;;;;;;;;;;;;;;;4821285;29;20130;-67
2022/03/16 02:41:11;;;;;;;87.28;47.45;;;;;;;;;;4821044;29;20350;-67
2022/03/16 02:43:38;;;;;;;80.50;48.30;;;;;;;;;;4821168;29;20069;-67
2022/03/16 02:46:04;;;;;;;76.07;44.75;;;;;;;;;;4820828;29;20073;-67
2022/03/16 02:48:30;;;;;;;89.80;46.47;;;;;;;;;;4834717;29;20057;-66
2022/03/16 02:50:56;;;;;;;87.13;46.00;;;;;;;;;;4820507;29;20126;-67
2022/03/16 02:53:22;;;;;;;94.32;47.13;;;;;;;;;;4821216;29;20051;-66
2022/03/16 02:55:48;;;;;;;82.53;45.53;;;;;;;;;;4834811;29;20058;-66
2022/03/16 02:58:16;;;;;;;85.80;47.30;;;;;;;;;;4823662;29;20454;-66
2022/03/16 03:00:42;;;;;;;94.13;49.28;;;;;;;;;;4824035;29;20101;-66
2022/03/16 03:03:08;;;;;;;92.82;48.53;;;;;;;;;;4822526;29;20513;-66
2022/03/16 03:05:34;;;;;;;86.53;47.60;;;;;;;;;;4824238;29;20085;-66
2022/03/16 03:08:00;;;;;;;85.80;45.78;;;;;;;;;;4824182;29;20066;-66
2022/03/16 03:10:27;;;;;;;84.80;47.47;;;;;;;;;;4824150;29;20058;-67
2022/03/16 03:12:53;;;;;;;93.32;48.30;;;;;;;;;;4823929;29;20137;-66
2022/03/16 03:15:19;;;;;;;92.78;49.05;;;;;;;;;;4823606;29;20065;-66
2022/03/16 03:17:46;;;;;;;82.68;46.97;;;;;;;;;;4823708;29;20047;-66
2022/03/16 03:20:13;;;;;;;92.32;48.28;;;;;;;;;;4837225;29;20098;-66
2022/03/16 03:22:39;;;;;;;93.00;48.67;;;;;;;;;;4823750;29;20110;-66
2022/03/16 03:25:06;;;;;;;95.45;50.38;;;;;;;;;;4807394;29;20062;-67
2022/03/16 03:27:32;;;;;;;87.03;49.58;;;;;;;;;;4823434;29;20208;-66
2022/03/16 03:29:59;;;;;;;92.72;50.08;;;;;;;;;;4823868;29;20406;-66
2022/03/16 03:32:25;;;;;;;88.70;50.03;;;;;;;;;;4823793;29;20058;-66
2022/03/16 03:34:51;;;;;;;89.82;47.60;;;;;;;;;;4823708;29;20212;-66
2022/03/16 03:37:18;;;;;;;92.03;47.15;;;;;;;;;;4823912;29;20057;-66
2022/03/16 03:39:44;;;;;;;87.43;46.28;;;;;;;;;;4823478;29;20484;-66
2022/03/16 03:42:11;;;;;;;89.22;46.65;;;;;;;;;;4823891;29;20058;-66
2022/03/16 03:44:37;;;;;;;81.05;46.85;;;;;;;;;;4823750;29;20054;-66
2022/03/16 03:47:05;;;;;;;90.85;48.30;;;;;;;;;;4823494;29;20069;-66
2022/03/16 03:49:35;;;;;;;85.63;47.22;;;;;;;;;;4823523;29;20058;-67
2022/03/16 03:52:01;;;;;;;85.57;47.17;;;;;;;;;;4837386;29;20073;-66
2022/03/16 03:54:28;;;;;;;83.68;46.65;;;;;;;;;;4823534;29;20095;-66
2022/03/16 03:56:54;;;;;;;90.50;47.42;;;;;;;;;;4823113;29;20194;-66
2022/03/16 03:59:20;;;;;;;;;;;;;;;;;;4823665;29;20054;-67
2022/03/16 04:01:46;;;;;;;94.40;52.67;;;;;;;;;;4823543;29;19925;-67
2022/03/16 04:04:15;;;;;;;94.50;50.72;;;;;;;;;;4837255;29;20062;-67
2022/03/16 04:06:41;;;;;;;94.05;50.03;;;;;;;;;;4822530;29;20062;-66
2022/03/16 04:09:07;;;;;;;95.22;50.35;;;;;;;;;;4822759;29;20070;-65
2022/03/16 04:11:34;;;;;;;103.65;53.50;;;;;;;;;;4823204;29;20448;-65
2022/03/16 04:14:00;;;;;;;101.68;54.50;;;;;;;;;;4823307;29;20081;-65
2022/03/16 04:16:26;;;;;;;102.63;55.17;;;;;;;;;;4823029;29;20373;-65
2022/03/16 04:18:55;;;;;;;112.38;57.65;;;;;;;;;;4822839;29;20402;-65
2022/03/16 04:21:21;;;;;;;107.30;56.70;;;;;;;;;;4822834;29;20133;-66
2022/03/16 04:23:47;;;;;;;102.88;53.78;;;;;;;;;;4822951;29;20115;-66
2022/03/16 04:26:13;;;;;;;101.93;53.17;;;;;;;;;;4822576;29;20456;-66
2022/03/16 04:28:40;;;;;;;111.03;55.40;;;;;;;;;;4836702;29;20073;-66
2022/03/16 04:31:06;;;;;;;104.90;53.85;;;;;;;;;;4806557;29;20066;-66
2022/03/16 04:33:32;;;;;;;102.43;53.22;;;;;;;;;;4822750;29;20076;-65
2022/03/16 04:35:58;;;;;;;98.05;49.88;;;;;;;;;;4822797;29;20073;-65
2022/03/16 04:38:24;;;;;;;104.13;52.70;;;;;;;;;;4822408;29;20046;-65
2022/03/16 04:40:50;;;;;;;104.07;53.10;;;;;;;;;;4822524;29;20250;-65
2022/03/16 04:43:18;;;;;;;105.82;52.25;;;;;;;;;;4822612;29;20168;-66
2022/03/16 04:45:44;;;;;;;101.03;54.53;;;;;;;;;;4822582;29;20642;-66
2022/03/16 04:48:11;;;;;;;103.13;53.55;;;;;;;;;;4822671;29;20069;-65
2022/03/16 04:50:41;;;;;;;105.43;51.78;;;;;;;;;;4836238;29;20472;-65
2022/03/16 04:53:07;;;;;;;96.82;51.08;;;;;;;;;;4822424;29;20046;-67
2022/03/16 04:55:36;;;;;;;100.80;52.30;;;;;;;;;;4822671;29;20115;-65
2022/03/16 04:58:06;;;;;;;100.43;51.90;;;;;;;;;;4835968;29;20158;-65
2022/03/16 05:00:36;;;;;;;98.25;50.28;;;;;;;;;;4822534;29;20051;-65
2022/03/16 05:03:03;;;;;;;93.95;49.70;;;;;;;;;;4836170;29;20050;-65
2022/03/16 05:05:29;;;;;;;93.07;51.85;;;;;;;;;;4822530;29;20105;-65
2022/03/16 05:07:56;;;;;;;109.93;51.92;;;;;;;;;;4822153;29;20062;-68
2022/03/16 05:10:22;;;;;;;95.57;50.33;;;;;;;;;;4821964;29;20068;-65
2022/03/16 05:12:49;;;;;;;109.35;56.20;;;;;;;;;;4835972;29;20058;-65
2022/03/16 05:15:16;;;;;;;109.10;54.15;;;;;;;;;;4821992;29;20058;-65
2022/03/16 05:17:46;;;;;;;101.55;51.67;;;;;;;;;;4835331;29;20094;-66
2022/03/16 05:20:13;;;;;;;106.03;54.40;;;;;;;;;;4805172;29;20066;-65
2022/03/16 05:22:42;;;;;;;111.05;55.33;;;;;;;;;;4835926;29;20470;-65
2022/03/16 05:25:09;;;;;;;100.35;51.60;;;;;;;;;;4836246;29;20062;-66
2022/03/16 05:27:35;;;;;;;101.45;51.80;;;;;;;;;;4805267;29;20513;-65
2022/03/16 05:30:01;;;;;;;98.90;50.08;;;;;;;;;;4805591;29;20058;-66
2022/03/16 05:32:27;;;;;;;108.07;53.53;;;;;;;;;;4821883;29;20061;-65
2022/03/16 05:34:53;;;;;;;103.07;53.78;;;;;;;;;;4821657;29;20054;-65
2022/03/16 05:37:19;;;;;;;112.82;52.40;;;;;;;;;;4821169;29;20451;-65
2022/03/16 05:39:45;;;;;;;113.25;52.72;;;;;;;;;;4820523;29;20134;-65
2022/03/16 05:42:11;;;;;;;96.78;50.45;;;;;;;;;;4820240;29;20119;-65
2022/03/16 05:44:37;;;;;;;98.47;50.80;;;;;;;;;;4804016;29;20050;-66
2022/03/16 05:47:04;;;;;;;103.68;53.78;;;;;;;;;;4820779;29;20050;-65
2022/03/16 05:49:30;;;;;;;90.40;52.15;;;;;;;;;;4820605;29;20058;-66
2022/03/16 05:51:56;;;;;;;97.78;48.70;;;;;;;;;;4833728;29;20050;-66
2022/03/16 05:54:22;;;;;;;100.60;51.67;;;;;;;;;;4820461;29;20068;-66
2022/03/16 05:56:48;;;;;;;97.70;50.17;;;;;;;;;;4819147;29;20133;-66
2022/03/16 05:59:14;;;;;;;90.07;49.83;;;;;;;;;;4833226;29;20198;-66
2022/03/16 06:01:40;;;;;;;89.25;49.10;;;;;;;;;;4820176;29;20110;-66
2022/03/16 06:04:06;;;;;;;88.38;46.38;;;;;;;;;;4819370;29;20148;-66
2022/03/16 06:06:32;;;;;;;97.68;47.20;;;;;;;;;;4833352;29;20066;-66
2022/03/16 06:08:58;;;;;;;87.13;47.92;;;;;;;;;;4819290;29;20049;-66
2022/03/16 06:11:24;;;;;;;81.88;45.80;;;;;;;;;;4819106;29;20124;-66
2022/03/16 06:13:54;;;;;;;78.68;46.95;;;;;;;;;;4831733;29;20395;-66
2022/03/16 06:16:20;;;;;;;83.05;47.28;;;;;;;;;;4819916;29;20126;-66
2022/03/16 06:18:46;;;;;;;84.05;45.88;;;;;;;;;;4833273;29;20162;-66
2022/03/16 06:21:12;;;;;;;80.88;44.47;;;;;;;;;;4819471;29;20050;-66
2022/03/16 06:23:38;;;;;;;80.82;47.47;;;;;;;;;;4803069;29;20352;-65
2022/03/16 06:26:05;;;;;;;85.28;45.15;;;;;;;;;;4832527;29;20137;-65
2022/03/16 06:28:33;;;;;;;82.30;46.08;;;;;;;;;;4819096;29;20166;-65
2022/03/16 06:30:59;;;;;;;81.55;46.70;;;;;;;;;;4819031;29;20156;-66
2022/03/16 06:33:29;;;;;;;87.93;48.25;;;;;;;;;;4822287;29;20149;-66
2022/03/16 06:36:02;;;;;;;84.43;47.05;;;;;;;;;;4835981;29;20107;-66
2022/03/16 06:38:28;;;;;;;95.20;49.75;;;;;;;;;;4822616;29;20049;-66
2022/03/16 06:40:54;;;;;;;89.05;48.35;;;;;;;;;;4836389;29;20070;-66
2022/03/16 06:43:21;;;;;;;84.78;47.88;;;;;;;;;;4822676;29;20129;-65
2022/03/16 06:45:47;;;;;;;92.13;47.97;;;;;;;;;;4822073;29;20061;-66
2022/03/16 06:48:13;;;;;;;;;;;;;;;;;;4806193;29;20129;-66
2022/03/16 06:50:39;;;;;;;96.05;50.38;;;;;;;;;;4822201;29;20298;-66
2022/03/16 06:53:06;;;;;;;90.45;49.60;;;;;;;;;;4822032;29;20061;-66
2022/03/16 06:55:32;;;;;;;89.57;48.90;;;;;;;;;;4822341;29;20058;-66
2022/03/16 06:57:58;;;;;;;;;;;;;;;;;;4823731;29;20137;-66
2022/03/16 07:00:24;;;;;;;95.68;50.00;;;;;;;;;;4821953;29;20044;-65
2022/03/16 07:02:58;;;;;;;90.05;49.20;;;;;;;;;;4821918;29;20054;-65
2022/03/16 07:05:28;;;;;;;88.88;51.47;;;;;;;;;;4821747;29;20452;-65
2022/03/16 07:07:58;;;;;;;96.15;51.85;;;;;;;;;;4821077;29;20058;-65
2022/03/16 07:10:24;;;;;;;99.07;52.55;;;;;;;;;;4835771;29;20138;-65
2022/03/16 07:12:50;;;;;;;;;;;;;;;;;;4822637;29;20054;-64
2022/03/16 07:15:16;;;;;;;102.18;53.70;;;;;;;;;;4821580;29;19925;-66
2022/03/16 07:17:42;;;;;;;96.20;52.75;;;;;;;;;;4821725;29;20141;-64
2022/03/16 07:20:11;;;;;;;88.45;48.50;;;;;;;;;;4835555;29;20507;-65
2022/03/16 07:22:38;;;;;;;93.60;49.35;;;;;;;;;;4835353;29;20059;-65
2022/03/16 07:25:09;;;;;;;95.18;48.83;;;;;;;;;;4821970;29;20050;-66
2022/03/16 07:27:38;;;;;;;94.70;49.33;;;;;;;;;;4805466;29;20054;-66
2022/03/16 07:30:08;;;;;;;94.88;48.85;;;;;;;;;;4822253;29;20333;-66
2022/03/16 07:32:36;;;;;;;84.65;46.42;;;;;;;;;;4820302;29;20186;-65
2022/03/16 07:35:02;;;;;;;99.47;48.10;;;;;;;;;;4821541;29;20102;-66
2022/03/16 07:37:31;;;;;;;93.28;48.28;;;;;;;;;;4834900;29;20141;-66
2022/03/16 07:39:57;;;;;;;90.85;48.63;;;;;;;;;;4821573;29;20054;-65
2022/03/16 07:42:23;;;;;;;82.63;48.00;;;;;;;;;;4820693;29;20051;-66
2022/03/16 07:44:50;;;;;;;91.40;47.95;;;;;;;;;;4835262;29;20122;-66
2022/03/16 07:47:17;;;;;;;90.50;51.03;;;;;;;;;;4819639;29;20137;-66
2022/03/16 07:49:43;;;;;;;85.00;48.25;;;;;;;;;;4821604;29;20054;-66
2022/03/16 07:52:09;;;;;;;84.75;46.40;;;;;;;;;;4835758;29;20217;-64
2022/03/16 07:54:35;;;;;;;75.45;43.30;;;;;;;;;;4821164;29;20451;-64
2022/03/16 07:57:01;;;;;;;74.65;43.85;;;;;;;;;;4804878;29;20054;-64
2022/03/16 07:59:27;;;;;;;71.28;44.30;;;;;;;;;;4835283;29;20050;-65
2022/03/16 08:01:53;;;;;;;75.85;44.55;;;;;;;;;;4820301;29;20510;-63
2022/03/16 08:04:19;;;;;;;73.32;43.38;;;;;;;;;;4821305;29;20058;-64
2022/03/16 08:06:45;;;;;;;78.70;43.20;;;;;;;;;;4821070;29;20070;-65
2022/03/16 08:09:11;;;;;;;80.15;45.38;;;;;;;;;;4834453;29;20058;-66
2022/03/16 08:11:41;;;;;;;78.78;45.45;;;;;;;;;;4820691;29;20050;-64
2022/03/16 08:14:07;;;;;;;79.47;45.42;;;;;;;;;;4820798;29;20101;-64
2022/03/16 08:16:33;;;;;;;77.05;43.97;;;;;;;;;;4804201;29;20361;-65
2022/03/16 08:18:59;;;;;;;74.32;42.10;;;;;;;;;;4804359;29;20154;-64
2022/03/16 08:21:26;;;;;;;76.43;44.83;;;;;;;;;;4820882;29;20110;-63
2022/03/16 08:23:53;;;;;;;73.07;45.50;;;;;;;;;;4821171;29;20077;-65
2022/03/16 08:26:19;;;;;;;70.60;42.08;;;;;;;;;;4821262;29;20112;-63
2022/03/16 08:28:45;;;;;;;68.18;40.30;;;;;;;;;;4804728;29;20085;-65
2022/03/16 08:31:12;;;;;;;68.38;42.00;;;;;;;;;;4821267;29;20133;-63
2022/03/16 08:33:38;;;;;;;70.53;41.38;;;;;;;;;;4821284;29;20429;-64
2022/03/16 08:36:07;;;;;;;76.38;41.80;;;;;;;;;;4822071;29;20138;-64
2022/03/16 08:38:36;;;;;;;68.68;40.63;;;;;;;;;;4835359;29;20496;-62
2022/03/16 08:41:02;;;;;;;63.70;40.47;;;;;;;;;;4804821;29;20485;-61
2022/03/16 08:43:28;;;;;;;;;;;;;;;;;;4821705;29;20140;-61
2022/03/16 08:45:54;;;;;;;67.05;42.08;;;;;;;;;;4804380;29;19979;-61
2022/03/16 08:48:21;;;;;;;67.88;40.30;;;;;;;;;;4820833;29;20058;-61
2022/03/16 08:50:49;;;;;;;64.53;39.53;;;;;;;;;;4821032;29;20047;-72
2022/03/16 08:53:18;;;;;;;68.40;39.50;;;;;;;;;;4820849;29;20072;-62
2022/03/16 08:55:46;;;;;;;69.20;40.83;;;;;;;;;;4819578;29;20581;-69
2022/03/16 08:58:14;;;;;;;66.65;41.10;;;;;;;;;;4821101;29;20075;-70
2022/03/16 09:00:41;;;;;;;65.07;39.20;;;;;;;;;;4783537;30;20345;-64
2022/03/16 09:03:07;;;;;;;65.28;39.20;;;;;;;;;;4786480;30;20098;-64
2022/03/16 09:05:37;;;;;;;60.65;38.22;;;;;;;;;;4783564;30;20400;-63
2022/03/16 09:08:04;;;;;;;57.35;35.78;;;;;;;;;;4785276;30;20043;-62
2022/03/16 09:10:30;;;;;;;65.15;38.00;;;;;;;;;;4785044;29;20115;-62
2022/03/16 09:12:56;;;;;;;62.55;36.25;;;;;;;;;;4784718;30;20334;-63
2022/03/16 09:15:22;;;;;;;;;;;;;;;;;;4785015;30;20472;-62
2022/03/16 09:17:48;;;;;;;61.88;36.50;;;;;;;;;;4785348;30;20016;-63
2022/03/16 09:20:14;;;;;;;56.42;35.08;;;;;;;;;;4784854;30;20417;-63
2022/03/16 09:22:41;;;;;;;55.00;34.63;;;;;;;;;;4813981;29;20411;-63
2022/03/16 09:25:08;;;;;;;58.13;33.13;;;;;;;;;;4785301;30;20131;-64
2022/03/16 09:27:35;;;;;;;;;;;;;;;;;;4785041;30;20066;-62
2022/03/16 09:30:02;;;;;;;53.65;33.35;;;;;;;;;;4813674;29;19925;-62
2022/03/16 09:32:30;;;;;;;55.50;33.50;;;;;;;;;;4783175;30;20051;-62
2022/03/16 09:34:56;;;;;;;58.20;33.42;;;;;;;;;;4784700;29;20134;-63
2022/03/16 09:37:22;;;;;;;58.92;33.72;;;;;;;;;;4784943;30;20425;-63
2022/03/16 09:39:48;;;;;;;54.35;32.92;;;;;;;;;;4784876;30;20051;-62
2022/03/16 09:42:14;;;;;;;51.85;30.95;;;;;;;;;;4784150;30;20139;-62
2022/03/16 09:44:41;;;;;;;54.17;32.78;;;;;;;;;;4782701;30;20083;-62
2022/03/16 09:47:10;;;;;;;;;;;;;;;;;;4768373;30;20179;-62
2022/03/16 09:49:37;;;;;;;48.38;30.08;;;;;;;;;;4784204;30;19976;-62
2022/03/16 09:52:04;;;;;;;54.58;32.80;;;;;;;;;;4812528;29;20051;-62
2022/03/16 09:54:30;;;;;;;49.75;29.15;;;;;;;;;;4783859;30;20457;-62
2022/03/16 09:56:57;;;;;;;61.83;30.25;;;;;;;;;;4785582;29;20139;-62
2022/03/16 09:59:23;;;;;;;43.85;26.30;;;;;;;;;;4821449;29;20066;-62
2022/03/16 10:01:57;;;;;;;43.00;26.33;;;;;;;;;;4833999;29;20060;-62
2022/03/16 10:04:30;;;;;;;44.10;25.13;;;;;;;;;;4820073;29;20087;-62
2022/03/16 10:06:56;;;;;;;39.88;22.40;;;;;;;;;;4820304;29;20499;-63
2022/03/16 10:15:11;;;;;;;34.78;21.08;;;;;;;;;;4820384;29;20050;-61
2022/03/16 10:17:46;;;;;;;32.58;20.75;;;;;;;;;;4833244;29;20054;-67
2022/03/16 10:20:26;;;;;;;36.08;20.30;;;;;;;;;;4820595;29;20111;-66
2022/03/16 10:22:54;;;;;;;30.92;18.45;;;;;;;;;;4820002;29;20470;-64
2022/03/16 10:25:21;;;;;;;29.25;17.55;;;;;;;;;;4803872;29;20138;-65
2022/03/16 10:27:47;;;;;;;32.05;18.67;;;;;;;;;;4833591;29;20487;-63
2022/03/16 10:30:14;;;;;;;30.73;17.77;;;;;;;;;;4788426;29;20098;-64
2022/03/16 10:32:40;;;;;;;29.20;17.50;;;;;;;;;;4820304;29;20110;-65
2022/03/16 10:35:07;;;;;;;28.80;18.42;;;;;;;;;;4820527;29;20270;-66
2022/03/16 10:37:33;;;;;;;;;;;;;;;;;;4820783;29;20054;-64
2022/03/16 10:39:59;;;;;;;31.73;18.73;;;;;;;;;;4821287;29;20025;-63
2022/03/16 10:48:20;;;;;;;31.95;17.95;;;;;;;;;;4820759;29;20153;-66
2022/03/16 10:50:47;;;;;;;34.65;18.48;;;;;;;;;;4819296;29;20133;-71
2022/03/16 10:53:15;;;;;;;30.17;18.58;;;;;;;;;;4819747;29;20429;-68
2022/03/16 10:55:41;;;;;;;30.83;18.38;;;;;;;;;;4819906;29;20464;-65
2022/03/16 10:58:08;;;;;;;35.05;19.77;;;;;;;;;;4819561;29;20114;-63
2022/03/16 11:00:35;;;;;;;32.92;18.05;;;;;;;;;;4803972;29;20557;-74
2022/03/16 11:03:06;;;;;;;29.30;17.70;;;;;;;;;;4834268;29;20106;-73
2022/03/16 11:05:36;;;;;;;29.20;17.48;;;;;;;;;;4820105;29;20054;-71
2022/03/16 11:08:06;;;;;;;29.65;17.40;;;;;;;;;;4821045;29;20130;-63
2022/03/16 11:10:33;;;;;;;25.67;15.13;;;;;;;;;;4821097;29;20054;-63
2022/03/16 11:15:50;;;;;;;27.77;14.82;;;;;;;;;;4820343;29;20168;-62
2022/03/16 11:18:19;;;;;;;30.95;15.20;;;;;;;;;;4820036;29;20519;-69
2022/03/16 11:20:48;;;;;;;26.50;14.98;;;;;;;;;;4836406;29;20053;-70
2022/03/16 11:26:11;;;;;;;29.20;15.30;;;;;;;;;;4822869;29;20134;-65
2022/03/16 11:28:59;;;;;;;28.75;16.70;;;;;;;;;;4822427;29;20057;-65
2022/03/16 11:31:31;;;;;;;27.08;15.55;;;;;;;;;;4822390;29;20080;-62
2022/03/16 11:33:59;;;;;;;33.40;16.45;;;;;;;;;;4822376;29;20050;-62
2022/03/16 11:36:30;;;;;;;28.05;16.45;;;;;;;;;;4821507;29;20058;-64
2022/03/16 11:39:02;;;;;;;25.63;16.10;;;;;;;;;;4822056;29;20107;-64
2022/03/16 11:41:28;;;;;;;27.60;16.50;;;;;;;;;;4806683;29;20117;-62
2022/03/16 11:44:01;;;;;;;26.80;15.93;;;;;;;;;;4822586;29;20372;-62
2022/03/16 11:46:28;;;;;;;29.42;16.83;;;;;;;;;;4807182;29;20054;-66
2022/03/16 11:49:02;;;;;;;29.83;16.77;;;;;;;;;;4822623;29;20496;-64
2022/03/16 11:51:28;;;;;;;30.30;15.93;;;;;;;;;;4822367;29;20057;-66
2022/03/16 11:54:01;;;;;;;27.95;15.93;;;;;;;;;;4822500;29;20054;-62
2022/03/16 11:56:36;;;;;;;27.42;15.88;;;;;;;;;;4823241;29;20097;-64
2022/03/16 11:59:18;;;;;;;27.98;15.80;;;;;;;;;;4822549;29;20060;-63
2022/03/16 12:01:48;;;;;;;29.83;16.67;;;;;;;;;;4805933;29;20089;-65
2022/03/16 12:04:19;;;;;;;29.05;16.33;;;;;;;;;;4806170;29;20107;-62
2022/03/16 12:07:02;;;;;;;26.63;15.07;;;;;;;;;;4816572;29;20127;-68
2022/03/16 12:09:31;;;;;;;24.95;14.23;;;;;;;;;;4821622;29;20054;-61
2022/03/16 12:15:00;;;;;;;24.33;14.55;;;;;;;;;;4804669;29;20055;-61
2022/03/16 12:17:26;;;;;;;27.00;15.07;;;;;;;;;;4835040;29;20101;-61
2022/03/16 12:20:12;;;;;;;29.95;15.00;;;;;;;;;;4821047;29;20121;-63
2022/03/16 12:22:48;;;;;;;26.30;15.45;;;;;;;;;;4821078;29;20059;-62
2022/03/16 12:25:26;;;;;;;26.60;15.00;;;;;;;;;;4821525;29;20104;-66
2022/03/16 12:30:41;;;;;;;;;;;;;;;;;;4821902;29;20051;-61
2022/03/16 12:33:07;;;;;;;29.13;14.20;;;;;;;;;;4821072;29;20027;-61
2022/03/16 12:35:36;;;;;;;26.52;14.77;;;;;;;;;;4821249;29;20060;-64
2022/03/16 12:38:03;;;;;;;30.60;14.23;;;;;;;;;;4821425;29;20094;-64
2022/03/16 12:40:32;;;;;;;27.45;14.80;;;;;;;;;;4821157;29;20054;-64
2022/03/16 12:42:58;;;;;;;25.63;14.52;;;;;;;;;;4821054;29;20050;-64
2022/03/16 12:45:28;;;;;;;28.60;16.27;;;;;;;;;;4804731;29;20153;-63
2022/03/16 12:48:04;;;;;;;27.95;15.75;;;;;;;;;;4820720;29;20429;-65
2022/03/16 12:50:30;;;;;;;24.92;14.85;;;;;;;;;;4820960;29;20125;-61
2022/03/16 12:52:57;;;;;;;30.05;14.80;;;;;;;;;;4835031;29;20051;-62
2022/03/16 12:55:24;;;;;;;24.90;13.65;;;;;;;;;;4834389;29;20063;-62
2022/03/16 12:57:51;;;;;;;25.65;14.30;;;;;;;;;;4804084;29;20058;-67
2022/03/16 13:00:17;;;;;;;27.67;15.00;;;;;;;;;;4834747;29;20348;-63
2022/03/16 13:02:44;;;;;;;27.08;15.80;;;;;;;;;;4804523;29;20073;-63
2022/03/16 13:05:11;;;;;;;29.33;15.18;;;;;;;;;;4820934;29;20325;-65
2022/03/16 13:07:38;;;;;;;26.60;15.30;;;;;;;;;;4833811;29;20153;-64
2022/03/16 13:10:06;;;;;;;28.42;15.68;;;;;;;;;;4833825;29;20472;-64
2022/03/16 13:12:32;;;;;;;28.45;14.77;;;;;;;;;;4820301;29;20056;-65
2022/03/16 13:14:58;;;;;;;27.33;13.80;;;;;;;;;;4820552;29;20258;-62
2022/03/16 13:17:25;;;;;;;;;;;;;;;;;;4820910;29;20054;-66
2022/03/16 13:19:55;;;;;;;30.97;14.63;;;;;;;;;;4820800;29;19925;-73
2022/03/16 13:22:22;;;;;;;25.02;14.77;;;;;;;;;;4804219;29;20295;-65
2022/03/16 13:24:52;;;;;;;26.52;14.73;;;;;;;;;;4820313;29;20402;-67
2022/03/16 13:27:22;;;;;;;26.25;15.02;;;;;;;;;;4820169;29;20149;-63
2022/03/16 13:29:52;;;;;;;26.73;14.98;;;;;;;;;;4820167;29;20058;-71
2022/03/16 13:32:19;;;;;;;26.80;14.60;;;;;;;;;;4788074;29;20528;-65
2022/03/16 13:34:46;;;;;;;28.15;14.85;;;;;;;;;;4821856;29;20057;-63
2022/03/16 13:37:20;;;;;;;28.60;14.60;;;;;;;;;;4820223;29;20072;-72
2022/03/16 13:40:00;;;;;;;27.85;14.73;;;;;;;;;;4834718;29;20065;-79
2022/03/16 13:42:34;;;;;;;27.77;13.95;;;;;;;;;;4818209;29;20066;-70
2022/03/16 13:45:20;;;;;;;26.77;15.25;;;;;;;;;;4833796;29;20184;-70
2022/03/16 13:48:06;;;;;;;26.35;14.98;;;;;;;;;;4833528;29;20508;-67
2022/03/16 13:50:32;;;;;;;27.58;14.95;;;;;;;;;;4819867;29;20062;-70
2022/03/16 13:53:11;;;;;;;26.45;14.32;;;;;;;;;;4803276;29;20050;-70
2022/03/16 13:55:37;;;;;;;27.38;13.98;;;;;;;;;;4833984;29;20099;-67
2022/03/16 13:58:11;;;;;;;29.08;14.40;;;;;;;;;;4819726;29;20054;-70
2022/03/16 14:00:46;;;;;;;30.30;15.27;;;;;;;;;;4833547;29;20395;-65
2022/03/16 14:03:13;;;;;;;25.70;14.43;;;;;;;;;;4804265;29;20125;-68
2022/03/16 14:05:40;;;;;;;28.25;14.90;;;;;;;;;;4819735;29;20076;-67
2022/03/16 14:08:12;;;;;;;25.02;14.68;;;;;;;;;;4803346;29;20159;-65
2022/03/16 14:10:42;;;;;;;25.52;14.13;;;;;;;;;;4834081;29;20133;-66
2022/03/16 14:13:09;;;;;;;29.48;14.98;;;;;;;;;;4804361;29;20055;-68
2022/03/16 14:15:35;;;;;;;38.65;15.30;;;;;;;;;;4834920;29;20058;-75
2022/03/16 14:18:09;;;;;;;25.42;14.93;;;;;;;;;;4834343;29;20133;-64
2022/03/16 14:20:37;;;;;;;26.67;15.43;;;;;;;;;;4833782;29;20098;-63
2022/03/16 14:23:04;;;;;;;30.27;16.38;;;;;;;;;;4820608;29;20054;-63
2022/03/16 14:25:38;;;;;;;29.23;16.08;;;;;;;;;;4819409;29;20050;-63
2022/03/16 14:28:09;;;;;;;28.27;16.60;;;;;;;;;;4820618;29;20058;-63
2022/03/16 14:30:36;;;;;;;29.50;17.67;;;;;;;;;;4820435;29;20162;-62
2022/03/16 14:33:03;;;;;;;30.65;15.90;;;;;;;;;;4819650;29;20100;-63
2022/03/16 14:35:30;;;;;;;31.80;17.73;;;;;;;;;;4819737;29;20050;-63
2022/03/16 14:37:58;;;;;;;29.60;17.40;;;;;;;;;;4819271;29;20046;-69
2022/03/16 14:40:26;;;;;;;29.88;17.20;;;;;;;;;;4803280;29;20144;-63
2022/03/16 14:42:54;;;;;;;30.52;17.55;;;;;;;;;;4818706;29;20054;-62
2022/03/16 14:45:23;;;;;;;28.23;17.65;;;;;;;;;;4819923;29;20059;-63
2022/03/16 14:47:50;;;;;;;30.20;17.98;;;;;;;;;;4819660;29;20085;-68